Search for airport 
image banner adimage banner adimage banner ad
image banner ad

KGCT - Guthrie County Rgnl

Located in Guthrie Center, United States

ICAO - GCT, IATA -

Data provided by Airmate  

General information

Coordinates: N41°41'13" W94°26'6"
Elevation is 1221 feet MSL.
Magnetic variation is 03° East
View others Airports in Iowa

Operational data

Special qualification required
Current time UTC:
Current local time:
Weather at : KPRO - Perry Muni ( 28 km )
METAR: KPRO 151015Z AUTO 33003KT 10SM CLR 13/10 A3011 RMK AO2 T01310100
View NOTAMs / SUP AIP / TFR affecting this airport [VIEW]
Communications frequencies: [VIEW]

Runways:

RWY identifierQFULength (ft)Width (ft)SurfaceLDA (ft)
18180°340060CONC
36360°340060CONC

Airport contact information

Address: Guthrie Center United States

Satellite view of KGCT